Previous Day
Next Day
Current Day
SHEF ID: FVSO2 FAIRVIEW
STATION TYPE: Mesonet
PRECIP AIR-TEMP WIND-DIRWIND-SPEED REL-HUMID SOLAR-RAD
in F deg mph % W/m2
Raw-Meson Raw-Meson Raw-Meson Raw-Meson Raw-Meson Raw-Meson
(US/Central)
05/18 00:00 0.00 63.95 159.75 3.08 92.75 0.00
05/18 01:00 0.00 62.60 127.75 0.95 96.00 0.00
05/18 02:00 0.02 62.60 206.75 2.29 96.75 0.00
05/18 03:00 0.11 60.85 273.75 10.79 86.25 0.00
05/18 04:00 0.03 58.95 305.75 6.27 94.75 0.00
05/18 05:00 0.01 58.91 192.50 9.00 94.75 0.00
05/18 06:00 0.00 58.59 207.00 5.03 94.25 0.00
05/18 07:00 0.00 58.33 115.75 2.46 96.00 8.50
05/18 08:00 0.00 59.00 195.00 2.96 96.50 42.50
05/18 09:00 0.00 61.75 223.00 4.70 91.50 210.50
05/18 10:00 0.00 64.67 248.50 1.79 82.25 234.75
05/18 11:00 0.00 66.11 166.75 0.73 76.75 228.00
05/18 12:00 0.00 67.06 101.00 3.75 79.25 255.00
05/18 13:00 0.00 69.89 66.50 6.09 74.50 575.25
05/18 14:00 0.00 72.68 84.75 6.15 67.25 680.50
05/18 15:00 0.00 72.95 128.00 4.64 68.25 418.50
05/18 16:00 0.00 73.94 184.75 2.74 65.75 414.00
05/18 17:00 0.00 74.30 189.75 2.13 65.00 346.00
05/18 18:00 0.00 72.72 150.00 9.45 73.00 416.00
05/18 19:00 0.00 70.84 53.00 8.61 78.75 315.25
05/18 20:00 0.00 69.35 41.25 5.20 80.00 109.50
05/18 21:00 0.00 65.48 100.00 3.69 91.00 10.50
05/18 22:00 0.00 63.23 246.25 2.69 95.50 0.00
05/18 23:00 ---- 63.10 153.50 3.86 97.25 0.00